Time;durP1;ratioP1;P1;durP2;ratioP2;P2;SDS_P1;SDS_P2;PMS_P1;PMS_P2;Temp;Humidity;BMP_temperature;BMP_pressure;BME280_temperature;BME280_humidity;BME280_pressure;Samples;Min_cycle;Max_cycle;Signal;HPM_P1;HPM_P2
2021/10/19 00:00:44;;;;;;;12.50;11.20;;;6.80;99.90;;;;;;6200043;23;20196;-87
2021/10/19 00:03:09;;;;;;;12.90;11.60;;;6.80;99.90;;;;;;6199686;23;20163;-86
2021/10/19 00:05:35;;;;;;;13.27;11.50;;;6.90;99.90;;;;;;6200906;23;20206;-86
2021/10/19 00:08:09;;;;;;;12.70;11.40;;;6.80;99.90;;;;;;6204131;23;20238;-86
2021/10/19 00:10:37;;;;;;;13.17;11.87;;;6.80;99.90;;;;;;6202277;23;20407;-86
2021/10/19 00:13:03;;;;;;;12.80;11.50;;;6.80;99.90;;;;;;6200099;23;20398;-87
2021/10/19 00:16:11;;;;;;;15.90;11.80;;;6.90;99.90;;;;;;6200339;23;20164;-86
2021/10/19 00:18:38;;;;;;;12.87;11.13;;;6.90;99.90;;;;;;6196384;23;20233;-87
2021/10/19 00:21:05;;;;;;;14.17;12.17;;;6.90;99.90;;;;;;6200622;23;20446;-87
2021/10/19 00:23:45;;;;;;;14.57;12.30;;;6.80;99.90;;;;;;6202310;23;20202;-87
2021/10/19 00:26:36;;;;;;;13.83;11.17;;;6.80;99.90;;;;;;6204891;23;20442;-86
2021/10/19 00:29:02;;;;;;;12.90;10.03;;;6.80;99.90;;;;;;6200241;23;20444;-87
2021/10/19 00:31:27;;;;;;;13.67;11.70;;;6.80;99.90;;;;;;6204126;23;20391;-87
2021/10/19 00:33:53;;;;;;;15.20;11.77;;;6.70;99.90;;;;;;6203486;23;20172;-87
2021/10/19 00:36:19;;;;;;;12.80;10.97;;;6.80;99.90;;;;;;6203579;23;20168;-87
2021/10/19 00:41:56;;;;;;;12.43;11.10;;;6.80;99.90;;;;;;6206415;23;20199;-86
2021/10/19 00:44:44;;;;;;;17.03;10.63;;;6.80;99.90;;;;;;6204112;23;20395;-86
2021/10/19 00:47:10;;;;;;;12.10;10.77;;;6.90;99.90;;;;;;6204744;23;20766;-86
2021/10/19 00:49:54;;;;;;;13.50;11.20;;;6.90;99.90;;;;;;6204577;23;20421;-87
2021/10/19 00:52:19;;;;;;;12.97;11.00;;;7.00;99.90;;;;;;6194263;23;20411;-87
2021/10/19 00:54:46;;;;;;;17.60;11.70;;;6.90;99.90;;;;;;6203058;23;20379;-87
2021/10/19 00:57:12;;;;;;;13.60;11.90;;;6.80;99.90;;;;;;6204487;23;20167;-86
2021/10/19 00:59:46;;;;;;;14.77;12.00;;;7.00;99.90;;;;;;6204409;23;20837;-86
2021/10/19 01:02:18;;;;;;;15.50;11.40;;;7.00;99.90;;;;;;6203429;23;20447;-86
2021/10/19 01:04:44;;;;;;;12.60;11.00;;;7.00;99.90;;;;;;6201782;23;20395;-86
2021/10/19 01:07:11;;;;;;;15.20;11.97;;;7.20;99.90;;;;;;6201432;23;20788;-86
2021/10/19 01:09:37;;;;;;;15.20;12.50;;;7.10;99.90;;;;;;6203595;23;20160;-88
2021/10/19 01:12:23;;;;;;;13.30;11.10;;;7.10;99.90;;;;;;6202749;23;20409;-87
2021/10/19 01:14:53;;;;;;;13.90;11.53;;;7.20;99.90;;;;;;6203417;23;20226;-87
2021/10/19 01:17:18;;;;;;;14.50;11.13;;;7.10;99.90;;;;;;6204756;23;20394;-87
2021/10/19 01:19:51;;;;;;;14.13;12.17;;;7.20;99.90;;;;;;6205662;23;20283;-88
2021/10/19 01:22:17;;;;;;;13.80;10.73;;;7.10;99.90;;;;;;6204273;23;20478;-88
2021/10/19 01:24:46;;;;;;;12.87;11.43;;;7.10;99.90;;;;;;6211238;23;20415;-87
2021/10/19 01:27:12;;;;;;;13.57;11.77;;;7.00;99.90;;;;;;6214563;23;20406;-87
2021/10/19 01:29:38;;;;;;;15.03;11.90;;;6.90;99.90;;;;;;6203147;23;20396;-87
2021/10/19 01:32:05;;;;;;;12.40;11.10;;;6.90;99.90;;;;;;6202508;23;20403;-87
2021/10/19 01:34:36;;;;;;;13.90;11.20;;;6.90;99.90;;;;;;6204655;23;20395;-86
2021/10/19 01:37:04;;;;;;;12.40;10.23;;;7.00;99.90;;;;;;6203920;23;20402;-87
2021/10/19 01:39:30;;;;;;;13.53;11.47;;;7.00;99.90;;;;;;6202721;23;20727;-88
2021/10/19 01:41:55;;;;;;;14.33;10.60;;;6.90;99.90;;;;;;6203090;23;20529;-87
2021/10/19 01:44:27;;;;;;;12.93;11.53;;;6.90;99.90;;;;;;6204628;23;20214;-87
2021/10/19 01:46:54;;;;;;;14.80;12.50;;;6.90;99.90;;;;;;6202531;23;20172;-87
2021/10/19 01:49:24;;;;;;;21.00;16.80;;;7.00;99.90;;;;;;6203953;23;20403;-87
2021/10/19 01:51:51;;;;;;;12.70;11.40;;;7.00;99.90;;;;;;6206194;23;20458;-87
2021/10/19 01:54:19;;;;;;;12.60;10.80;;;7.00;99.90;;;;;;6205836;23;20907;-87
2021/10/19 01:56:48;;;;;;;12.50;10.73;;;7.10;99.90;;;;;;6203041;23;20387;-87
2021/10/19 01:59:15;;;;;;;14.90;11.37;;;7.20;99.90;;;;;;6203618;23;20168;-87
2021/10/19 02:02:03;;;;;;;13.43;10.37;;;7.30;99.90;;;;;;6203240;23;20896;-85
2021/10/19 02:04:28;;;;;;;12.30;11.10;;;7.40;99.90;;;;;;6175809;23;20406;-86
2021/10/19 02:06:55;;;;;;;11.70;10.50;;;7.50;99.90;;;;;;6152193;23;20412;-86
2021/10/19 02:09:21;;;;;;;12.43;11.10;;;7.50;99.90;;;;;;6203644;23;20171;-85
2021/10/19 02:11:47;;;;;;;11.50;10.27;;;7.60;99.90;;;;;;6178633;23;20894;-86
2021/10/19 02:14:13;;;;;;;12.00;10.80;;;7.70;99.90;;;;;;6177101;23;20168;-86
2021/10/19 02:16:46;;;;;;;12.60;11.07;;;7.80;99.90;;;;;;6177608;23;20218;-86
2021/10/19 02:19:25;;;;;;;11.13;10.00;;;7.80;99.90;;;;;;6180073;23;20409;-87
2021/10/19 02:22:02;;;;;;;11.63;10.43;;;7.90;99.90;;;;;;6204730;23;20454;-87
2021/10/19 02:24:28;;;;;;;12.50;11.30;;;7.90;99.90;;;;;;6177650;23;20397;-87
2021/10/19 02:26:55;;;;;;;10.80;9.70;;;8.00;99.90;;;;;;6170042;23;20707;-86
2021/10/19 02:29:21;;;;;;;11.13;9.97;;;8.00;99.90;;;;;;6180078;23;20174;-87
2021/10/19 02:31:47;;;;;;;13.03;10.40;;;8.00;99.90;;;;;;6152634;23;20778;-87
2021/10/19 02:34:22;;;;;;;10.77;9.57;;;7.90;99.90;;;;;;6179264;23;20395;-87
2021/10/19 02:36:48;;;;;;;10.80;9.67;;;8.00;99.90;;;;;;6178477;23;20382;-87
2021/10/19 02:39:15;;;;;;;11.20;10.00;;;8.00;99.90;;;;;;6179538;23;20398;-87
2021/10/19 02:41:41;;;;;;;11.33;10.13;;;8.10;99.90;;;;;;6177865;23;20454;-87
2021/10/19 02:44:07;;;;;;;11.80;10.60;;;8.10;99.90;;;;;;6178528;23;20690;-86
2021/10/19 02:46:33;;;;;;;10.33;9.23;;;8.00;99.90;;;;;;6179461;23;20191;-86
2021/10/19 02:49:00;;;;;;;11.77;9.73;;;8.00;99.90;;;;;;6177421;23;20159;-87
2021/10/19 02:51:26;;;;;;;11.13;9.97;;;8.10;99.90;;;;;;6179589;23;20387;-86
2021/10/19 02:53:56;;;;;;;10.70;9.70;;;8.00;99.90;;;;;;6178451;23;20454;-87
2021/10/19 02:56:22;;;;;;;11.43;9.97;;;8.00;99.90;;;;;;6192258;23;20456;-88
2021/10/19 02:58:49;;;;;;;12.40;9.00;;;8.00;99.90;;;;;;6179774;23;20889;-86
2021/10/19 03:01:17;;;;;;;10.30;9.30;;;7.90;99.90;;;;;;6178252;23;20435;-86
2021/10/19 03:03:47;;;;;;;9.93;8.93;;;7.90;99.90;;;;;;6177926;23;20486;-86
2021/10/19 03:06:13;;;;;;;10.70;9.30;;;7.90;99.90;;;;;;6179514;23;20395;-85
2021/10/19 03:08:38;;;;;;;10.30;9.20;;;8.00;99.90;;;;;;6179332;23;20414;-86
2021/10/19 03:11:04;;;;;;;9.73;8.83;;;8.00;99.90;;;;;;6175739;23;20422;-85
2021/10/19 03:13:38;;;;;;;10.70;9.60;;;8.00;99.90;;;;;;6173374;23;20178;-85
2021/10/19 03:16:04;;;;;;;10.27;9.17;;;8.00;99.90;;;;;;6177513;23;20199;-86
2021/10/19 03:18:29;;;;;;;10.80;9.70;;;7.90;99.90;;;;;;6177996;23;20893;-86
2021/10/19 03:20:55;;;;;;;13.40;11.20;;;7.80;99.90;;;;;;6177667;23;20449;-86
2021/10/19 03:23:21;;;;;;;12.07;10.87;;;7.80;99.90;;;;;;6179343;23;20159;-86
2021/10/19 03:25:47;;;;;;;12.33;10.20;;;7.80;99.90;;;;;;6178551;23;20181;-87
2021/10/19 03:28:13;;;;;;;9.80;8.80;;;7.80;99.90;;;;;;6177155;23;20520;-86
2021/10/19 03:30:40;;;;;;;9.70;8.80;;;7.90;99.90;;;;;;6178157;23;21453;-86
2021/10/19 03:33:06;;;;;;;10.00;8.10;;;7.90;99.90;;;;;;6204674;23;20487;-87
2021/10/19 03:35:31;;;;;;;13.80;9.67;;;8.00;99.90;;;;;;6176203;23;20400;-86
2021/10/19 03:37:57;;;;;;;10.47;9.43;;;8.00;99.90;;;;;;6178631;23;20474;-86
2021/10/19 03:40:23;;;;;;;11.57;9.40;;;8.00;99.90;;;;;;6178599;23;20195;-86
2021/10/19 03:42:49;;;;;;;9.90;9.00;;;7.90;99.90;;;;;;6178133;23;20231;-87
2021/10/19 03:45:18;;;;;;;9.40;8.50;;;8.00;99.90;;;;;;6175816;23;20167;-86
2021/10/19 03:47:45;;;;;;;11.23;9.37;;;8.00;99.90;;;;;;6180002;23;20175;-87
2021/10/19 03:50:12;;;;;;;11.93;9.43;;;8.00;99.90;;;;;;6175656;23;20398;-86
2021/10/19 03:52:37;;;;;;;11.07;9.53;;;8.00;99.90;;;;;;6178332;23;20402;-87
2021/10/19 03:55:31;;;;;;;10.63;9.53;;;8.00;99.90;;;;;;6179403;23;20868;-87
2021/10/19 03:57:57;;;;;;;10.73;9.60;;;8.00;99.90;;;;;;6201240;23;20166;-87
2021/10/19 04:00:23;;;;;;;10.80;9.70;;;7.90;99.90;;;;;;6178252;23;20402;-87
2021/10/19 04:02:48;;;;;;;10.63;9.30;;;7.90;99.90;;;;;;6191333;23;20422;-86
2021/10/19 04:05:14;;;;;;;10.80;9.70;;;7.90;99.90;;;;;;6201297;23;20198;-87
2021/10/19 04:07:46;;;;;;;10.13;8.70;;;7.80;99.90;;;;;;6203385;23;20491;-88
2021/10/19 04:10:12;;;;;;;10.63;9.53;;;7.90;99.90;;;;;;6200076;23;20406;-87
2021/10/19 04:12:42;;;;;;;9.77;8.77;;;7.80;99.90;;;;;;6200992;23;20752;-86
2021/10/19 04:15:08;;;;;;;10.87;9.77;;;7.90;99.90;;;;;;6202306;23;21846;-86
2021/10/19 04:17:37;;;;;;;10.60;9.50;;;7.90;99.90;;;;;;6200595;23;20387;-87
2021/10/19 04:20:04;;;;;;;11.50;10.40;;;8.00;99.90;;;;;;6201029;23;20885;-87
2021/10/19 04:22:30;;;;;;;9.57;8.57;;;8.00;99.90;;;;;;6203369;23;20521;-86
2021/10/19 04:24:55;;;;;;;11.47;10.10;;;8.10;99.90;;;;;;6208967;23;20394;-86
2021/10/19 04:27:22;;;;;;;10.10;9.10;;;8.00;99.90;;;;;;6209279;23;20193;-86
2021/10/19 04:29:48;;;;;;;9.90;8.90;;;8.10;99.90;;;;;;6203384;23;20584;-86
2021/10/19 04:32:14;;;;;;;10.53;9.43;;;8.10;99.90;;;;;;6204104;23;20971;-86
2021/10/19 04:34:40;;;;;;;10.50;8.73;;;8.10;99.90;;;;;;6199979;23;20171;-85
2021/10/19 04:37:05;;;;;;;10.70;9.20;;;8.20;99.90;;;;;;6202539;23;20725;-86
2021/10/19 04:39:32;;;;;;;11.17;10.00;;;8.10;99.90;;;;;;6203689;23;20610;-86
2021/10/19 04:41:58;;;;;;;12.13;10.23;;;8.10;99.90;;;;;;6203671;23;20194;-86
2021/10/19 04:44:24;;;;;;;9.70;8.70;;;8.10;99.90;;;;;;6201374;23;20853;-85
2021/10/19 04:46:50;;;;;;;10.87;9.40;;;8.10;99.90;;;;;;6200301;23;20427;-85
2021/10/19 04:49:15;;;;;;;10.53;9.53;;;8.10;99.90;;;;;;6201990;23;20387;-86
2021/10/19 04:51:41;;;;;;;10.57;9.47;;;8.20;99.90;;;;;;6202710;23;20451;-86
2021/10/19 04:54:08;;;;;;;9.63;8.83;;;8.20;99.90;;;;;;6200309;23;20274;-85
2021/10/19 04:56:33;;;;;;;13.40;9.23;;;8.20;99.90;;;;;;6200492;23;20167;-85
2021/10/19 05:02:12;;;;;;;13.10;10.07;;;8.30;99.90;;;;;;6198841;23;20195;-87
2021/10/19 05:04:39;;;;;;;10.60;9.50;;;8.30;99.90;;;;;;6201107;23;20736;-86
2021/10/19 05:07:04;;;;;;;11.07;9.97;;;8.30;99.90;;;;;;6175272;23;20422;-88
2021/10/19 05:09:30;;;;;;;11.27;10.07;;;8.30;99.90;;;;;;6175684;23;20411;-86
2021/10/19 05:11:58;;;;;;;11.03;9.80;;;8.30;99.90;;;;;;6201343;23;20171;-86
2021/10/19 05:14:24;;;;;;;11.03;9.90;;;8.20;99.90;;;;;;6174331;23;20171;-87
2021/10/19 05:17:02;;;;;;;11.00;9.80;;;8.20;99.90;;;;;;6173037;23;20485;-86
2021/10/19 05:19:31;;;;;;;9.63;8.73;;;8.20;99.90;;;;;;6154520;23;20901;-86
2021/10/19 05:22:01;;;;;;;11.70;9.97;;;8.20;99.90;;;;;;6174599;23;20466;-87
2021/10/19 05:24:49;;;;;;;9.90;8.90;;;8.20;99.90;;;;;;6174778;23;20485;-87
2021/10/19 05:27:14;;;;;;;11.23;10.13;;;8.30;99.90;;;;;;6153295;23;20440;-86
2021/10/19 05:29:40;;;;;;;10.27;9.17;;;8.30;99.90;;;;;;6177224;23;20394;-86
2021/10/19 05:32:05;;;;;;;12.50;10.07;;;8.30;99.90;;;;;;6175028;23;20174;-87
2021/10/19 05:34:32;;;;;;;10.53;9.43;;;8.30;99.90;;;;;;6175794;23;20163;-86
2021/10/19 05:36:58;;;;;;;10.53;9.53;;;8.40;99.90;;;;;;6176390;23;20163;-87
2021/10/19 05:39:24;;;;;;;10.10;9.10;;;8.30;99.90;;;;;;6176907;23;20381;-87
2021/10/19 05:41:49;;;;;;;11.13;10.03;;;8.30;99.90;;;;;;6177724;23;20449;-87
2021/10/19 05:45:00;;;;;;;10.53;9.60;;;8.40;99.90;;;;;;6176019;23;20167;-88
2021/10/19 05:47:25;;;;;;;11.90;10.60;;;8.50;99.90;;;;;;6167864;23;20376;-91
2021/10/19 05:50:17;;;;;;;13.53;9.70;;;8.50;99.90;;;;;;6180018;23;20892;-89
2021/10/19 05:52:45;;;;;;;11.30;10.20;;;8.50;99.90;;;;;;6194343;23;20163;-89
2021/10/19 05:55:11;;;;;;;11.70;9.70;;;8.50;99.90;;;;;;6213550;23;20422;-89
2021/10/19 05:57:40;;;;;;;11.37;10.27;;;8.50;99.90;;;;;;6212378;23;20697;-91
2021/10/19 06:00:09;;;;;;;10.83;9.80;;;8.60;99.90;;;;;;6206355;23;20183;-90
2021/10/19 06:02:36;;;;;;;14.73;13.20;;;8.60;99.90;;;;;;6185095;23;20454;-90
2021/10/19 06:05:01;;;;;;;21.30;19.27;;;8.60;99.90;;;;;;6206545;23;20410;-91
2021/10/19 06:07:27;;;;;;;13.60;10.37;;;8.70;99.90;;;;;;6204476;23;20394;-90
2021/10/19 06:09:53;;;;;;;9.57;8.67;;;8.70;99.90;;;;;;6204039;23;20170;-90
2021/10/19 06:12:19;;;;;;;10.70;9.60;;;8.80;99.90;;;;;;6205585;23;20240;-89
2021/10/19 06:14:46;;;;;;;9.87;8.87;;;8.80;99.90;;;;;;6202539;23;20482;-90
2021/10/19 06:17:12;;;;;;;10.87;9.67;;;8.80;99.90;;;;;;6202960;23;20240;-90
2021/10/19 06:19:38;;;;;;;11.23;10.07;;;8.90;99.90;;;;;;6204420;23;20391;-89
2021/10/19 06:22:04;;;;;;;13.33;10.73;;;8.90;99.90;;;;;;6203643;23;20196;-89
2021/10/19 06:24:32;;;;;;;11.47;10.20;;;9.10;99.90;;;;;;6205025;23;20159;-89
2021/10/19 06:26:58;;;;;;;9.87;8.87;;;9.20;99.90;;;;;;6202679;23;20401;-89
2021/10/19 06:29:24;;;;;;;11.27;10.07;;;9.20;99.90;;;;;;6207687;23;20403;-90
2021/10/19 06:31:50;;;;;;;12.07;10.77;;;9.20;99.90;;;;;;6204040;23;20314;-90
2021/10/19 06:34:16;;;;;;;11.97;10.80;;;9.30;99.90;;;;;;6206879;23;20167;-90
2021/10/19 06:36:41;;;;;;;13.53;11.97;;;9.40;99.90;;;;;;6208063;23;20162;-90
2021/10/19 06:39:07;;;;;;;11.83;10.63;;;9.40;99.90;;;;;;6204596;23;20159;-89
2021/10/19 06:41:40;;;;;;;11.77;9.87;;;9.50;99.90;;;;;;6204415;23;20195;-90
2021/10/19 06:44:06;;;;;;;12.73;11.33;;;9.50;99.90;;;;;;6200330;23;20230;-89
2021/10/19 06:46:44;;;;;;;;;;;;;;;;;;;;;
2021/10/19 06:49:13;;;;;;;11.40;10.30;;;9.60;99.90;;;;;;6200999;23;20170;-88
2021/10/19 06:51:39;;;;;;;11.70;10.50;;;9.60;99.90;;;;;;6203226;23;20439;-89
2021/10/19 06:54:05;;;;;;;12.37;11.07;;;9.70;99.90;;;;;;6197448;23;20391;-88
2021/10/19 06:56:31;;;;;;;15.20;11.20;;;9.70;99.90;;;;;;6200685;23;20722;-88
2021/10/19 06:58:59;;;;;;;11.60;10.30;;;9.80;99.90;;;;;;6205957;23;20553;-89
2021/10/19 07:01:27;;;;;;;10.40;9.47;;;9.80;99.90;;;;;;6202636;23;20199;-89
2021/10/19 07:03:53;;;;;;;12.13;10.90;;;9.80;99.90;;;;;;6202523;23;20639;-89
2021/10/19 07:06:18;;;;;;;11.80;10.60;;;9.90;99.90;;;;;;6203893;23;20399;-90
2021/10/19 07:08:44;;;;;;;11.20;10.13;;;10.00;99.90;;;;;;6200105;23;20690;-90
2021/10/19 07:11:13;;;;;;;11.30;10.10;;;10.00;99.90;;;;;;6200156;23;20492;-89
2021/10/19 07:13:38;;;;;;;17.00;11.07;;;10.00;99.90;;;;;;6199186;23;20461;-89
2021/10/19 07:16:07;;;;;;;12.50;11.20;;;10.10;99.90;;;;;;6201169;23;20712;-89
2021/10/19 07:18:35;;;;;;;11.60;10.47;;;10.10;99.90;;;;;;6198121;23;20160;-90
2021/10/19 07:21:03;;;;;;;11.60;9.80;;;10.10;99.90;;;;;;6202577;23;20457;-88
2021/10/19 07:23:29;;;;;;;9.20;8.40;;;10.10;99.90;;;;;;6205655;23;20429;-89
2021/10/19 07:25:55;;;;;;;11.70;10.50;;;10.10;99.90;;;;;;6212471;23;20391;-89
2021/10/19 07:28:20;;;;;;;11.27;10.07;;;10.10;99.90;;;;;;6203374;23;20191;-89
2021/10/19 07:30:46;;;;;;;11.10;10.10;;;10.10;99.90;;;;;;6201267;23;20163;-91
2021/10/19 07:33:22;;;;;;;;;;;;;;;;;;;;;
2021/10/19 07:35:56;;;;;;;10.20;9.30;;;10.40;99.90;;;;;;6205083;23;20545;-91
2021/10/19 07:38:22;;;;;;;11.33;10.20;;;10.40;99.90;;;;;;6201137;23;20406;-92
2021/10/19 07:40:48;;;;;;;10.37;9.37;;;10.40;99.90;;;;;;6201920;23;20434;-90
2021/10/19 07:43:24;;;;;;;10.43;9.43;;;10.60;99.90;;;;;;6202842;23;20159;-91
2021/10/19 07:45:49;;;;;;;10.30;9.20;;;10.70;99.90;;;;;;6200590;23;20456;-91
2021/10/19 07:48:17;;;;;;;9.57;8.67;;;10.70;99.90;;;;;;6201910;23;20489;-90
2021/10/19 07:50:47;;;;;;;10.70;9.70;;;10.80;99.90;;;;;;6203262;23;20168;-89
2021/10/19 07:53:13;;;;;;;11.90;10.60;;;10.80;99.90;;;;;;6199357;23;20482;-88
2021/10/19 07:55:41;;;;;;;12.50;11.40;;;10.70;99.90;;;;;;6200407;23;20371;-89
2021/10/19 07:58:10;;;;;;;53.53;48.13;;;10.80;99.90;;;;;;6200222;23;20943;-88
2021/10/19 08:00:45;;;;;;;12.63;11.43;;;10.80;99.90;;;;;;6200876;23;20405;-91
2021/10/19 08:03:13;;;;;;;10.47;9.57;;;10.90;99.90;;;;;;6199771;23;20468;-89
2021/10/19 08:05:42;;;;;;;11.23;9.80;;;10.90;99.90;;;;;;6202318;23;20401;-90
2021/10/19 08:08:16;;;;;;;11.50;9.47;;;10.90;99.90;;;;;;6203835;23;20395;-89
2021/10/19 08:10:50;;;;;;;10.43;9.50;;;11.10;99.90;;;;;;6200475;23;20402;-91
2021/10/19 08:13:19;;;;;;;13.43;8.87;;;11.10;99.90;;;;;;6202259;23;20922;-90
2021/10/19 08:15:45;;;;;;;9.73;8.83;;;11.20;99.90;;;;;;6201704;23;20817;-92
2021/10/19 08:18:15;;;;;;;12.17;8.77;;;11.30;99.90;;;;;;6209369;23;20380;-88
2021/10/19 08:20:46;;;;;;;9.57;8.43;;;11.30;99.90;;;;;;6202415;23;20941;-89
2021/10/19 08:23:21;;;;;;;12.20;9.30;;;11.40;99.90;;;;;;6203099;23;20402;-90
2021/10/19 08:25:49;;;;;;;10.47;9.43;;;11.40;99.90;;;;;;6203777;23;20392;-92
2021/10/19 08:28:23;;;;;;;10.73;9.63;;;11.40;99.90;;;;;;6201220;23;20458;-88
2021/10/19 08:31:18;;;;;;;9.47;8.50;;;11.30;99.90;;;;;;6199721;23;20383;-89
2021/10/19 08:33:44;;;;;;;12.10;9.83;;;11.30;99.90;;;;;;6201550;23;20394;-88
2021/10/19 08:36:11;;;;;;;12.00;9.87;;;11.40;99.90;;;;;;6198584;23;20382;-88
2021/10/19 08:38:36;;;;;;;9.37;8.40;;;11.40;99.90;;;;;;6203352;23;20241;-88
2021/10/19 08:41:02;;;;;;;10.73;9.73;;;11.50;99.90;;;;;;6202379;23;20439;-88
2021/10/19 08:43:28;;;;;;;10.03;9.03;;;11.40;99.90;;;;;;6204800;23;20158;-89
2021/10/19 08:45:55;;;;;;;11.10;9.43;;;11.40;99.90;;;;;;6201453;23;20195;-88
2021/10/19 08:48:21;;;;;;;13.93;9.40;;;11.70;99.90;;;;;;6202050;23;20156;-88
2021/10/19 08:50:57;;;;;;;13.90;9.83;;;11.80;99.90;;;;;;6204046;23;20385;-91
2021/10/19 08:53:31;;;;;;;10.00;9.00;;;12.00;99.90;;;;;;6209126;23;20394;-92
2021/10/19 08:55:57;;;;;;;10.70;9.60;;;12.20;99.90;;;;;;6214075;23;20387;-91
2021/10/19 08:58:38;;;;;;;10.67;9.57;;;12.30;99.90;;;;;;6225971;23;20489;-91
2021/10/19 09:01:12;;;;;;;10.87;9.20;;;12.40;99.90;;;;;;6207142;23;20187;-90
2021/10/19 09:03:53;;;;;;;12.37;10.37;;;12.30;99.90;;;;;;6205946;23;20402;-91
2021/10/19 09:06:32;;;;;;;10.60;9.60;;;12.30;99.90;;;;;;6207281;23;20386;-93
2021/10/19 09:09:12;;;;;;;11.20;9.83;;;12.20;99.90;;;;;;6200522;23;20374;-93
2021/10/19 09:11:41;;;;;;;11.73;10.53;;;12.30;99.90;;;;;;6178816;23;20402;-93
2021/10/19 09:14:12;;;;;;;13.30;9.80;;;12.20;99.90;;;;;;6179998;23;20903;-94
2021/10/19 09:16:40;;;;;;;11.60;10.27;;;12.30;99.90;;;;;;6182763;23;20430;-95
2021/10/19 09:19:07;;;;;;;10.90;9.80;;;12.50;99.90;;;;;;6180889;23;20397;-94
2021/10/19 09:21:34;;;;;;;8.80;8.00;;;12.50;99.90;;;;;;6177282;23;20446;-92
2021/10/19 09:24:24;;;;;;;8.97;8.07;;;12.70;99.90;;;;;;6206387;23;20383;-91
2021/10/19 09:27:10;;;;;;;8.07;7.33;;;12.80;99.90;;;;;;6179650;23;20596;-93
2021/10/19 09:29:44;;;;;;;8.50;7.73;;;12.90;99.90;;;;;;6208027;23;20458;-90
2021/10/19 09:32:14;;;;;;;10.73;9.70;;;13.00;99.90;;;;;;6178444;23;20793;-91
2021/10/19 09:34:45;;;;;;;9.53;8.60;;;12.90;99.90;;;;;;6173086;23;20730;-91
2021/10/19 09:37:20;;;;;;;11.10;10.07;;;12.80;99.90;;;;;;6199555;23;20476;-89
2021/10/19 09:39:51;;;;;;;9.10;8.30;;;12.70;99.90;;;;;;6171102;23;20402;-90
2021/10/19 09:42:23;;;;;;;9.00;8.20;;;12.60;99.90;;;;;;6173276;23;20454;-90
2021/10/19 09:45:00;;;;;;;8.40;7.60;;;12.50;99.90;;;;;;6172344;23;20403;-88
2021/10/19 09:47:36;;;;;;;7.10;6.50;;;12.40;99.90;;;;;;6199230;23;20425;-88
2021/10/19 09:50:03;;;;;;;6.83;6.23;;;12.50;99.90;;;;;;6173136;23;20406;-91
2021/10/19 09:52:30;;;;;;;11.57;6.60;;;12.40;99.90;;;;;;6171074;23;20405;-88
2021/10/19 09:54:56;;;;;;;7.33;6.63;;;12.40;99.90;;;;;;6199245;23;20470;-89
2021/10/19 09:57:26;;;;;;;7.93;7.13;;;12.50;99.90;;;;;;6172657;23;20437;-88
2021/10/19 09:59:52;;;;;;;7.93;7.10;;;12.50;99.90;;;;;;6171667;23;20498;-91
2021/10/19 10:02:18;;;;;;;8.23;7.47;;;12.50;99.90;;;;;;6196068;23;20508;-88
2021/10/19 10:04:44;;;;;;;10.60;7.63;;;12.50;99.90;;;;;;6197520;23;20387;-88
2021/10/19 10:07:14;;;;;;;7.97;7.27;;;12.60;99.90;;;;;;6197497;23;20160;-87
2021/10/19 10:09:42;;;;;;;9.00;7.57;;;12.50;99.90;;;;;;6199564;23;20624;-86
2021/10/19 10:12:08;;;;;;;8.03;7.27;;;12.50;99.90;;;;;;6171342;23;20407;-87
2021/10/19 10:14:44;;;;;;;8.57;7.67;;;12.50;99.90;;;;;;6198891;23;20709;-87
2021/10/19 10:17:11;;;;;;;8.07;7.30;;;12.40;99.90;;;;;;6198513;23;20390;-88
2021/10/19 10:19:37;;;;;;;8.57;7.73;;;12.50;99.90;;;;;;6166386;23;20882;-88
2021/10/19 10:22:30;;;;;;;14.70;9.77;;;12.50;99.90;;;;;;6194982;23;20437;-88
2021/10/19 10:25:20;;;;;;;7.27;6.50;;;12.60;99.90;;;;;;6200392;23;20482;-89
2021/10/19 10:27:46;;;;;;;5.83;5.33;;;12.60;99.90;;;;;;6198192;23;20884;-88
2021/10/19 10:30:22;;;;;;;6.80;6.10;;;12.70;99.90;;;;;;6196732;23;20478;-88
2021/10/19 10:32:48;;;;;;;6.90;5.73;;;12.80;99.90;;;;;;6198349;23;20156;-88
2021/10/19 10:35:17;;;;;;;6.20;5.13;;;12.80;99.90;;;;;;6172291;23;20403;-89
2021/10/19 10:37:53;;;;;;;6.47;5.87;;;12.90;99.90;;;;;;6201870;23;20406;-87
2021/10/19 10:40:28;;;;;;;5.00;4.50;;;13.00;99.90;;;;;;6204856;23;20378;-87
2021/10/19 10:42:55;;;;;;;5.53;5.03;;;13.10;99.90;;;;;;6203592;23;20816;-88
2021/10/19 10:45:31;;;;;;;4.70;4.30;;;13.10;99.90;;;;;;6204138;23;20379;-88
2021/10/19 10:47:59;;;;;;;4.93;4.53;;;13.20;99.90;;;;;;6205608;23;20387;-87
2021/10/19 10:50:27;;;;;;;4.60;4.20;;;13.20;99.90;;;;;;6178667;23;20395;-89
2021/10/19 10:53:03;;;;;;;5.40;4.27;;;13.40;99.90;;;;;;6177947;23;20399;-87
2021/10/19 10:55:36;;;;;;;3.67;3.33;;;13.50;99.90;;;;;;6176899;23;20390;-91
2021/10/19 10:58:02;;;;;;;4.00;3.70;;;13.70;99.90;;;;;;6180401;23;20406;-93
2021/10/19 11:00:28;;;;;;;3.93;3.63;;;13.80;99.90;;;;;;6177236;23;20872;-92
2021/10/19 11:03:12;;;;;;;4.97;3.87;;;14.00;99.90;;;;;;6190194;23;20200;-92
2021/10/19 11:05:59;;;;;;;5.07;4.23;;;14.20;99.90;;;;;;6206381;23;20183;-94
2021/10/19 11:08:41;;;;;;;;;;;;;;;;;;;;;
2021/10/19 11:11:15;;;;;;;3.77;3.37;;;14.40;99.90;;;;;;6207623;23;20474;-92
2021/10/19 11:14:08;;;;;;;4.07;3.67;;;14.50;99.90;;;;;;6205472;23;20395;-92
2021/10/19 11:16:49;;;;;;;3.70;3.40;;;14.60;99.90;;;;;;6204603;23;20393;-91
2021/10/19 11:19:25;;;;;;;3.50;3.20;;;14.70;99.90;;;;;;6205293;23;20395;-92
2021/10/19 11:21:59;;;;;;;3.90;3.60;;;14.80;99.90;;;;;;6205375;23;20438;-91
2021/10/19 11:24:27;;;;;;;3.47;3.17;;;14.90;99.90;;;;;;6203516;23;20414;-91
2021/10/19 11:26:54;;;;;;;3.40;3.10;;;15.00;99.90;;;;;;6202866;23;20441;-91
2021/10/19 11:29:22;;;;;;;2.83;2.63;;;15.10;99.90;;;;;;6205759;23;20465;-94
2021/10/19 11:31:52;;;;;;;2.93;2.73;;;15.30;99.90;;;;;;6209224;23;20419;-93
2021/10/19 11:34:18;;;;;;;2.70;2.50;;;15.50;99.90;;;;;;6206206;23;20804;-93
2021/10/19 11:37:32;;;;;;;;;;;;;;;;;;;;;
2021/10/19 11:40:14;;;;;;;9.03;7.90;;;15.60;99.90;;;;;;6207932;23;20793;-92
2021/10/19 11:43:00;;;;;;;10.00;7.70;;;15.50;99.90;;;;;;6206365;23;20777;-92
2021/10/19 11:45:29;;;;;;;7.90;7.20;;;15.20;99.90;;;;;;6205513;23;20386;-92
2021/10/19 11:47:58;;;;;;;8.60;7.80;;;15.00;99.90;;;;;;6206251;23;20831;-93
2021/10/19 11:50:35;;;;;;;9.87;8.20;;;14.80;99.90;;;;;;6208479;23;20419;-93
2021/10/19 11:53:03;;;;;;;9.70;8.70;;;14.60;99.90;;;;;;6204123;23;20728;-94
2021/10/19 11:55:32;;;;;;;8.03;7.30;;;14.40;99.90;;;;;;6209274;23;20383;-92
2021/10/19 11:57:58;;;;;;;9.47;7.90;;;14.40;99.90;;;;;;6209308;23;20399;-93
2021/10/19 12:00:23;;;;;;;9.40;8.00;;;14.60;99.90;;;;;;6201168;23;20398;-91
2021/10/19 12:02:53;;;;;;;8.07;7.40;;;14.60;99.90;;;;;;6202931;23;20442;-91
2021/10/19 12:05:21;;;;;;;11.17;7.70;;;14.90;99.90;;;;;;6202606;23;20229;-91
2021/10/19 12:07:49;;;;;;;8.53;7.37;;;15.10;99.90;;;;;;6204071;23;20766;-91
2021/10/19 12:10:18;;;;;;;8.63;7.40;;;15.10;99.90;;;;;;6204128;23;20434;-92
2021/10/19 12:13:15;;;;;;;7.57;6.10;;;15.20;99.90;;;;;;6205578;23;20390;-95
2021/10/19 12:15:41;;;;;;;6.77;6.00;;;15.10;99.90;;;;;;6187233;23;20477;-93
2021/10/19 12:18:17;;;;;;;8.40;5.70;;;15.10;99.90;;;;;;6208963;23;20368;-93
2021/10/19 12:20:46;;;;;;;9.30;6.57;;;15.10;99.90;;;;;;6216463;23;20189;-93
2021/10/19 12:23:13;;;;;;;7.80;6.43;;;15.00;99.90;;;;;;6202817;23;20741;-90
2021/10/19 12:25:42;;;;;;;5.27;4.77;;;15.10;99.90;;;;;;6207527;23;20414;-91
2021/10/19 12:28:14;;;;;;;4.77;4.37;;;15.20;99.90;;;;;;6203761;23;20407;-90
2021/10/19 12:30:41;;;;;;;3.70;3.40;;;15.30;99.90;;;;;;6204485;23;20398;-91
2021/10/19 12:34:06;;;;;;;5.60;3.93;;;15.40;99.90;;;;;;6206018;23;20461;-89
2021/10/19 12:36:39;;;;;;;4.93;2.80;;;15.40;99.90;;;;;;6119293;23;21587;-90
2021/10/19 12:39:16;;;;;;;3.70;3.40;;;15.40;99.90;;;;;;6192215;23;20453;-90
2021/10/19 12:41:43;;;;;;;4.00;3.47;;;15.30;99.90;;;;;;6205822;23;21213;-89
2021/10/19 12:44:12;;;;;;;3.70;3.40;;;15.30;99.90;;;;;;6201820;23;20426;-88
2021/10/19 12:46:39;;;;;;;3.90;3.43;;;15.20;99.90;;;;;;6199808;23;20410;-91
2021/10/19 12:49:06;;;;;;;3.13;2.93;;;15.10;99.90;;;;;;6205788;23;20399;-91
2021/10/19 12:54:29;;;;;;;13.20;8.23;;;15.20;99.90;;;;;;6204856;23;20433;-89
2021/10/19 12:57:15;;;;;;;10.83;8.47;;;15.10;99.90;;;;;;6205681;23;20402;-90
2021/10/19 12:59:42;;;;;;;5.73;4.73;;;15.20;99.90;;;;;;6202130;23;20174;-89
2021/10/19 13:02:16;;;;;;;5.07;4.10;;;15.30;99.90;;;;;;6207990;23;20445;-89
2021/10/19 13:04:42;;;;;;;4.30;3.90;;;15.30;99.90;;;;;;6180903;23;20761;-90
2021/10/19 13:07:08;;;;;;;3.73;3.43;;;15.30;99.90;;;;;;6207382;23;20314;-90
2021/10/19 13:09:41;;;;;;;4.07;3.67;;;15.30;99.90;;;;;;6181188;23;20498;-90